createdAt,value
2023-03-03T00:02:35.445Z,64.7
2023-03-03T00:14:35.322Z,67.0
2023-03-03T00:26:35.325Z,69.2
2023-03-03T00:38:35.440Z,74.2
2023-03-03T00:50:35.345Z,74.6
2023-03-03T01:02:35.510Z,76.2
2023-03-03T01:14:35.363Z,75.1
2023-03-03T01:26:35.395Z,77.2
2023-03-03T01:38:35.340Z,77.0
2023-03-03T01:50:35.438Z,79.2
2023-03-03T02:02:35.435Z,79.6
2023-03-03T02:14:35.407Z,79.1
2023-03-03T02:26:36.380Z,76.0
2023-03-03T02:38:35.351Z,78.0
2023-03-03T02:50:35.436Z,77.6
2023-03-03T03:02:35.338Z,77.1
2023-03-03T03:14:35.321Z,80.0
2023-03-03T03:26:35.322Z,83.5
2023-03-03T03:38:35.412Z,80.1
2023-03-03T03:50:35.332Z,80.8
2023-03-03T04:02:35.522Z,84.5
2023-03-03T04:14:35.344Z,85.4
2023-03-03T04:26:35.354Z,84.8
2023-03-03T04:38:35.345Z,87.9
2023-03-03T04:50:35.353Z,88.9
2023-03-03T05:02:36.672Z,88.4
2023-03-03T05:14:35.352Z,89.7
2023-03-03T05:26:35.366Z,88.3
2023-03-03T05:38:35.345Z,92.2
2023-03-03T05:50:35.370Z,91.4
2023-03-03T06:02:35.426Z,92.1
2023-03-03T06:14:35.391Z,93.3
2023-03-03T06:26:35.340Z,94.4
2023-03-03T06:38:35.328Z,94.6
2023-03-03T06:50:35.434Z,94.7
2023-03-03T07:02:35.633Z,94.2
2023-03-03T07:14:35.333Z,93.8
2023-03-03T07:26:35.368Z,93.6
2023-03-03T07:38:35.452Z,94.7
2023-03-03T07:50:35.394Z,95.2
2023-03-03T08:02:35.342Z,96.5
2023-03-03T08:14:35.411Z,97.0
2023-03-03T08:26:35.402Z,97.2
2023-03-03T08:38:35.317Z,95.6
2023-03-03T08:50:36.960Z,96.9
2023-03-03T09:02:35.330Z,96.5
2023-03-03T09:14:35.442Z,96.0
2023-03-03T09:26:35.374Z,94.7
2023-03-03T09:38:35.324Z,94.2
2023-03-03T09:50:35.323Z,93.6
2023-03-03T10:02:35.494Z,91.6
2023-03-03T10:14:35.431Z,90.9
2023-03-03T10:26:44.965Z,91.5
2023-03-03T10:38:35.651Z,89.9
2023-03-03T10:50:35.354Z,93.1
2023-03-03T11:02:35.327Z,91.7
2023-03-03T11:14:35.439Z,91.0
2023-03-03T11:26:35.328Z,89.6
2023-03-03T11:38:35.740Z,84.4
2023-03-03T11:50:35.331Z,82.1
2023-03-03T12:02:35.415Z,82.3
2023-03-03T12:14:35.317Z,80.6
2023-03-03T12:26:35.454Z,79.9
2023-03-03T12:38:35.452Z,77.4
2023-03-03T12:50:35.387Z,75.4
2023-03-03T13:02:35.417Z,74.6
2023-03-03T13:14:35.406Z,74.9
2023-03-03T13:26:35.371Z,73.3
2023-03-03T13:38:35.412Z,74.1
2023-03-03T13:50:41.268Z,71.9
2023-03-03T14:02:35.379Z,70.9
2023-03-03T14:14:36.656Z,70.0
2023-03-03T14:26:35.472Z,70.9
2023-03-03T14:38:35.362Z,70.9
2023-03-03T14:50:35.385Z,70.2
2023-03-03T15:02:35.447Z,70.2
2023-03-03T15:14:35.456Z,70.6
2023-03-03T15:26:35.407Z,70.6
2023-03-03T15:38:35.407Z,70.7
2023-03-03T15:50:35.387Z,70.9
2023-03-03T16:02:35.363Z,72.5
2023-03-03T16:14:35.327Z,72.6
2023-03-03T16:26:35.415Z,73.5
2023-03-03T16:38:35.344Z,74.7
2023-03-03T16:50:35.397Z,75.6
2023-03-03T17:02:35.320Z,77.3
2023-03-03T17:14:35.366Z,79.1
2023-03-03T17:26:35.411Z,80.5
2023-03-03T17:38:35.318Z,82.4
2023-03-03T17:50:35.349Z,83.5
2023-03-03T18:02:35.328Z,84.9
2023-03-03T18:14:35.332Z,85.6
2023-03-03T18:26:35.329Z,89.9
2023-03-03T18:38:35.345Z,90.7
2023-03-03T18:50:35.346Z,91.1
2023-03-03T19:02:35.343Z,92.0
2023-03-03T19:14:35.328Z,92.7
2023-03-03T19:26:35.373Z,93.1
2023-03-03T19:38:35.425Z,93.6
2023-03-03T19:50:35.412Z,94.2
2023-03-03T20:02:35.326Z,94.9
2023-03-03T20:14:35.391Z,95.0
2023-03-03T20:26:35.463Z,95.5
2023-03-03T20:38:35.333Z,95.7
2023-03-03T20:50:35.409Z,95.8
2023-03-03T21:02:35.435Z,95.9
2023-03-03T21:14:35.448Z,96.3
2023-03-03T21:26:35.332Z,97.4
2023-03-03T21:38:35.457Z,98.0
2023-03-03T21:50:35.336Z,97.2
2023-03-03T22:02:35.372Z,97.0
2023-03-03T22:14:35.331Z,97.0
2023-03-03T22:26:35.339Z,98.7
2023-03-03T22:38:35.371Z,98.0
2023-03-03T22:50:35.327Z,98.0
2023-03-03T23:02:35.410Z,98.0
2023-03-03T23:14:35.326Z,97.9
2023-03-03T23:26:35.322Z,98.1
2023-03-03T23:38:35.382Z,98.0
2023-03-03T23:50:35.342Z,97.7
